Aérodrome :
LOGIN :

S'inscrire | Disclaimer

   EN    FR    IT 

 










Légende :    VFR   VFR Marginal   IFR   IFR Intensif   IFR Très Intensif
Visi : 
Plafond : 
>= 8 km
>= 3000ft
5 à 8 km
1000 à 3000 ft
1500m à 5 km
500 à 1000 ft
800 à 1500m
200 à 500 ft
< 800m
< 200 ft
Symboles :   Orages  Brouillard  Fortes neiges  Fortes précipitations  Vent > 20 kt
SIGMETs :   Divers  Orages  Givrage  Turbulence  Onde Orograph.  Cendres Volcan.







- Altitude de l'aérodrome : 49 ft
- Code IATA : GLZ


EHGR - Gilze-Rijen Airbase

DERNIER METAR :
  • 231955Z AUTO 20013KT 160V240 9999 FEW007 BKN009 OVC010 10/09 Q1017 GRN 20014KT 9999 FEW007 SCT009 BKN010 TEMPO 4500 RADZ FEW005 SCT007 BKN010

METARs EXPIRÉS :
  • 231938Z AUTO 20014KT 160V240 9999 SCT007 BKN008 OVC009 10/09 Q1017 GRN 20014KT 9999 FEW007 SCT009 BKN010 TEMPO 4500 RADZ FEW005 SCT007 BKN010
  • 231925Z AUTO 20013KT 160V250 6000 BR SCT007 OVC008 10/09 Q1017 GRN 20014KT 9999 FEW007 SCT009 BKN010 TEMPO 4500 RADZ FEW005 SCT007 BKN010
  • 231859Z AUTO 20013KT 170V240 5000 BR SCT008 OVC009 10/08 Q1017 GRN 20014KT 9999 FEW007 SCT009 BKN010 TEMPO 4500 RADZ FEW005 SCT007 BKN010
  • 231855Z AUTO 20013KT 160V240 9999 SCT008 OVC009 10/08 Q1017 GRN 20014KT 9999 FEW007 SCT009 BKN010 TEMPO 4500 RADZ FEW005 SCT007 BKN010
  • 231825Z AUTO 20014KT 180V250 9999 BKN007 OVC008 10/08 Q1017 GRN 20014KT 9999 FEW007 SCT009 BKN010 TEMPO 4500 RADZ FEW005 SCT007 BKN010
  • 231755Z AUTO 20014KT 170V250 9999 BKN007 OVC008 10/08 Q1017 GRN 20014KT 9999 FEW007 SCT009 BKN010 TEMPO 4500 RADZ FEW005 SCT007 BKN010
  • 231741Z AUTO 21012KT 140V260 9999 SCT007 OVC008 09/08 Q1017 GRN 20014KT 9999 FEW007 SCT009 BKN010 TEMPO 4500 RADZ FEW005 SCT007 BKN010
  • 231729Z AUTO 21014KT 160V270 6000 BR SCT007 OVC008 10/08 Q1017 GRN 20014KT 9999 FEW007 SCT009 BKN010 TEMPO 4500 RADZ FEW005 SCT007 BKN010

TAF TAF EHGR
Valide du 23 à 18h jusqu'au 24 à 06h UTC


231712Z 2318/2406 21012KT 9999 OVC008
TEMPO 2318/2406 4500 RADZ SCT004 OVC006
PROB40
TEMPO 2321/2406 3000 -DZ SCT002 OVC004
Pas de NOTAMs connus pour ce terrain.



MET'MAP, la Météo Aéronautique d'un coup d'oeil ! - Copyright ORBIFLY Décembre 2007 - Disclaimer

ORBIFLY MET'MAP TEAM :

Programmation & Développement : Alexandra Zaïnal
Conception & Développement : Baudouin d'Aumeries
Co-Programmation & Développement : Marc-Olivier Méhu
Soutien technique & logistique : Manuel Goepfert

Contact : metmap@orbifly.com




SOURCES & CREDITS :

   NOAA